Date,TemperatureHighF,TemperatureAvgF,TemperatureLowF,DewpointHighF,DewpointAvgF,DewpointLowF,HumidityHigh,HumidityAvg,HumidityLow,PressureMaxIn,PressureMinIn,WindSpeedMaxMPH,WindSpeedAvgMPH,GustSpeedMaxMPH,PrecipitationSumIn
2013-1-1,36.0,31.4,20.0,26.0,20.3,8.0,71,63,52,29.98,29.81,6,2,14,0.03
2013-1-2,27.0,21.0,14.0,16.0,11.3,7.0,76,66,56,30.14,29.96,3,1,11,0.01
2013-1-3,29.0,18.9,6.0,15.0,8.7,-2.0,71,64,49,30.16,30.02,2,0,7,0.04
2013-1-4,38.0,30.0,23.0,24.0,20.2,15.0,75,67,55,30.02,29.90,5,2,18,0.03
2013-1-5,41.0,31.7,25.0,24.0,20.7,17.0,80,64,49,30.26,29.93,5,1,17,0.05
2013-1-6,44.0,33.7,26.0,30.0,25.6,21.0,83,72,55,30.21,29.95,3,1,10,0.01
2013-1-7,42.0,33.3,27.0,28.0,23.9,19.0,83,69,49,30.39,30.02,5,1,12,0.01
2013-1-8,47.0,35.0,27.0,30.0,25.6,20.0,81,69,51,30.40,30.31,5,1,12,0.00
2013-1-9,42.0,35.2,25.0,34.0,28.5,21.0,88,77,64,30.38,30.10,6,1,16,0.00
2013-1-10,47.0,38.3,32.0,32.0,24.1,21.0,70,57,41,30.55,30.17,7,2,18,0.00
2013-1-11,37.0,32.6,27.0,35.0,26.9,22.0,91,80,67,30.53,30.14,2,0,7,0.43
2013-1-12,43.0,40.1,37.0,41.0,38.1,35.0,92,92,91,30.18,30.10,2,0,7,0.40
2013-1-13,45.0,42.0,38.0,43.0,40.0,36.0,93,92,92,30.16,30.02,3,0,8,0.01
2013-1-14,51.0,44.1,34.0,49.0,39.7,26.0,93,85,67,30.29,29.91,5,1,12,0.03
2013-1-15,36.0,33.0,30.0,27.0,25.2,23.0,80,73,65,30.34,30.23,4,1,10,0.05
2013-1-16,32.0,30.7,29.0,29.0,27.2,23.0,91,88,70,30.23,29.83,2,0,6,0.01
2013-1-17,42.0,34.0,27.0,31.0,26.7,17.0,91,75,61,30.10,29.87,5,2,13,0.44
2013-1-18,30.0,23.0,18.0,17.0,9.0,5.0,66,55,39,30.44,30.03,6,2,15,0.03
2013-1-19,43.0,34.0,23.0,28.0,21.3,10.0,69,59,51,30.37,29.89,7,3,20,0.03
2013-1-20,52.0,38.8,25.0,31.0,23.5,8.0,72,55,34,29.99,29.64,8,4,19,0.01
2013-1-21,28.0,23.8,19.0,20.0,12.6,7.0,85,63,48,30.07,29.79,7,1,15,0.00
2013-1-22,23.0,16.9,9.0,16.0,2.5,-6.0,86,53,37,30.12,29.78,6,2,18,0.01
2013-1-23,19.0,10.8,5.0,0.0,-3.2,-7.0,65,53,40,30.17,30.10,4,1,12,0.01
2013-1-24,23.0,11.1,2.0,3.0,-2.3,-6.0,73,55,36,30.30,30.09,10,2,21,0.00
2013-1-25,23.0,15.3,7.0,13.0,3.5,-1.0,83,60,39,30.35,30.03,3,0,8,0.00
2013-1-26,27.0,17.5,11.0,13.0,6.8,2.0,83,63,45,30.31,30.00,6,2,15,0.01
2013-1-27,36.0,20.9,10.0,12.0,6.4,1.0,78,55,30,30.47,30.30,5,1,14,0.01
2013-1-28,31.0,25.5,18.0,28.0,18.7,2.0,90,76,48,30.46,29.98,3,0,8,0.00
2013-1-29,36.0,34.2,31.0,34.0,31.6,28.0,91,90,89,30.16,29.97,2,0,6,0.17
2013-1-30,54.0,44.9,34.0,51.0,42.9,32.0,93,92,91,30.11,29.39,7,2,13,0.07
2013-1-31,55.0,38.6,27.0,53.0,24.7,13.0,93,58,40,29.69,29.18,11,5,25,0.79
2013-2-1,31.0,25.0,20.0,14.0,9.7,4.0,65,52,39,30.15,29.70,7,3,20,0.01
2013-2-2,32.0,22.0,16.0,17.0,9.8,5.0,83,60,34,30.24,30.04,5,1,12,0.00
2013-2-3,33.0,22.7,15.0,20.0,15.4,11.0,86,74,51,30.04,29.76,3,0,8,0.05
2013-2-4,33.0,23.5,18.0,18.0,11.0,6.0,84,60,39,29.94,29.76,6,1,14,0.02
2013-2-5,28.0,23.9,20.0,21.0,18.2,9.0,86,79,61,29.98,29.90,2,0,5,0.01
2013-2-6,39.0,29.1,22.0,27.0,18.7,2.0,89,67,40,30.32,29.90,5,1,13,0.02
2013-2-7,32.0,23.5,16.0,13.0,6.1,1.0,65,47,34,30.50,30.32,4,0,9,0.02
2013-2-8,29.0,26.6,24.0,26.0,21.5,14.0,90,82,62,30.36,29.63,10,4,25,0.00
2013-2-9,26.0,21.1,14.0,23.0,17.8,10.0,89,87,83,30.28,29.72,13,6,27,0.16
2013-2-10,34.0,23.1,12.0,27.0,14.9,7.0,83,71,50,30.44,30.28,7,1,17,0.26
2013-2-11,42.0,34.7,23.0,40.0,31.6,15.0,92,88,68,30.33,29.67,4,1,12,0.28
2013-2-12,45.0,37.0,34.0,36.0,28.0,24.0,92,71,50,29.95,29.69,7,2,16,0.01
2013-2-13,47.0,35.7,26.0,29.0,23.6,19.0,87,63,38,29.93,29.70,2,0,7,0.00
2013-2-14,47.0,34.8,26.0,29.0,25.6,22.0,89,71,42,29.99,29.71,4,0,9,0.07
2013-2-15,53.0,40.4,31.0,34.0,29.2,26.0,86,66,43,30.00,29.91,5,1,18,0.04
2013-2-16,40.0,31.6,27.0,30.0,22.2,14.0,88,69,48,29.96,29.72,6,2,13,0.05
2013-2-17,30.0,22.1,14.0,14.0,5.3,0.0,61,48,33,29.87,29.59,11,5,24,0.02
2013-2-18,36.0,22.5,13.0,11.0,5.9,1.0,60,49,31,30.19,29.87,6,2,16,0.00
2013-2-19,42.0,34.0,22.0,38.0,25.0,10.0,95,71,48,30.19,29.64,5,1,13,0.23
2013-2-20,35.0,27.9,21.0,30.0,15.3,10.0,82,59,48,29.90,29.65,10,4,19,0.11
2013-2-21,37.0,25.0,20.0,17.0,12.5,10.0,69,59,43,30.29,29.89,8,4,19,0.00
2013-2-22,38.0,28.7,19.0,26.0,19.3,13.0,80,68,49,30.40,30.26,6,1,19,0.00
2013-2-23,36.0,33.4,32.0,33.0,29.7,26.0,91,87,78,30.28,29.83,4,1,14,0.17
2013-2-24,41.0,35.2,30.0,35.0,31.0,23.0,91,85,73,29.94,29.73,5,2,14,0.05
2013-2-25,48.0,36.1,29.0,29.0,24.9,22.0,79,65,45,30.24,29.94,6,2,16,0.01
2013-2-26,41.0,33.8,26.0,29.0,25.2,21.0,86,71,53,30.31,29.99,5,1,16,0.06
2013-2-27,42.0,37.5,32.0,40.0,35.2,28.0,92,90,86,29.99,29.52,9,2,24,1.52
2013-2-28,48.0,38.7,33.0,42.0,34.0,31.0,92,83,60,29.63,29.54,2,0,6,0.08
2013-3-1,43.0,36.8,33.0,33.0,28.5,25.0,87,72,57,29.76,29.58,6,2,14,0.01
2013-3-2,39.0,32.9,28.0,26.0,24.0,22.0,78,70,60,29.75,29.68,5,2,14,0.00
2013-3-3,36.0,29.3,26.0,25.0,20.4,17.0,79,69,54,29.72,29.65,6,3,14,0.00
2013-3-4,44.0,31.5,25.0,25.0,19.8,17.0,75,62,43,29.85,29.71,8,3,19,0.00
2013-3-5,52.0,37.3,27.0,29.0,24.2,20.0,77,60,39,30.03,29.86,6,2,14,0.00
2013-3-6,39.0,36.1,34.0,34.0,28.7,26.0,87,74,65,30.01,29.92,10,4,25,0.04
2013-3-7,36.0,32.7,30.0,31.0,27.5,24.0,89,81,71,30.06,29.95,8,4,24,0.06
2013-3-8,37.0,32.0,28.0,30.0,26.5,23.0,90,81,61,30.19,29.97,7,4,21,0.06
2013-3-9,56.0,39.8,29.0,28.0,23.4,21.0,72,54,31,30.32,30.18,6,2,13,0.39
2013-3-10,54.0,38.1,26.0,33.0,28.5,22.0,88,70,43,30.39,30.29,4,1,8,0.08
2013-3-11,53.0,42.1,34.0,43.0,36.4,30.0,90,81,61,30.32,30.11,5,2,11,0.00
2013-3-12,52.0,48.1,39.0,50.0,45.3,35.0,92,90,86,30.11,29.69,7,4,20,0.88
2013-3-13,54.0,40.6,31.0,35.0,28.9,23.0,88,66,35,29.87,29.78,5,1,11,0.03
2013-3-14,36.0,31.0,26.0,27.0,15.9,9.0,78,54,41,29.90,29.81,8,3,20,0.00
2013-3-15,45.0,32.7,23.0,29.0,18.4,9.0,76,56,37,29.92,29.70,5,2,14,0.00
2013-3-16,40.0,32.0,27.0,27.0,21.7,15.0,84,67,41,29.89,29.74,5,1,13,0.01
2013-3-17,38.0,29.8,22.0,25.0,15.3,8.0,86,57,32,30.30,29.89,5,2,13,0.02
2013-3-18,35.0,27.0,21.0,25.0,11.6,5.0,88,54,33,30.41,30.08,7,2,17,0.01
2013-3-19,37.0,31.8,28.0,33.0,28.7,23.0,90,88,77,30.08,29.68,6,2,18,0.50
2013-3-20,44.0,33.0,26.0,24.0,20.1,17.0,74,60,40,29.83,29.76,8,2,17,0.19
2013-3-21,40.0,32.1,28.0,23.0,17.7,11.0,77,57,37,29.83,29.62,5,1,13,0.01
2013-3-22,41.0,31.3,22.0,23.0,18.4,12.0,73,59,44,29.83,29.68,6,2,14,0.01
2013-3-23,47.0,36.0,30.0,25.0,21.0,17.0,69,55,37,29.89,29.76,7,3,20,0.00
2013-3-24,49.0,36.3,25.0,26.0,21.3,17.0,74,55,39,29.92,29.71,6,1,15,0.00
2013-3-25,43.0,37.5,32.0,27.0,24.4,22.0,73,59,46,29.74,29.46,8,2,18,0.00
2013-3-26,53.0,40.0,34.0,32.0,25.8,21.0,73,58,35,29.85,29.58,7,1,16,0.00
2013-3-27,55.0,40.8,29.0,29.0,23.3,20.0,71,51,32,29.94,29.84,5,1,16,0.00
2013-3-28,49.0,40.1,33.0,33.0,29.0,23.0,74,65,51,30.09,29.94,6,2,14,0.00
2013-3-29,60.0,44.6,34.0,32.0,28.2,26.0,73,54,30,30.12,30.04,5,2,13,0.00
2013-3-30,62.0,45.6,32.0,33.0,24.4,17.0,78,48,22,30.15,30.06,6,1,17,0.00
2013-3-31,55.0,43.4,30.0,39.0,26.0,-99.9,88,53,32,30.14,29.68,7,2,17,0.09
2013-4-1,60.0,44.6,33.0,45.0,35.0,14.0,91,71,41,29.87,29.60,6,2,23,0.14
2013-4-2,46.0,34.5,28.0,17.0,13.9,9.0,61,44,28,30.03,29.88,7,3,20,0.04
2013-4-3,49.0,35.9,27.0,18.0,13.4,9.0,57,41,24,30.26,30.02,8,3,17,0.00
2013-4-4,58.0,39.9,26.0,27.0,18.4,12.0,70,44,20,30.36,30.08,7,2,17,0.00
2013-4-5,65.0,47.3,36.0,28.0,22.7,14.0,71,42,16,30.08,29.72,7,2,18,0.00
2013-4-6,53.0,39.9,29.0,21.0,11.6,2.0,60,34,15,30.31,29.98,9,2,20,0.00
2013-4-7,56.0,43.5,33.0,40.0,30.6,20.0,86,62,37,30.31,30.01,8,2,19,0.00
2013-4-8,73.0,55.3,40.0,41.0,38.7,34.0,90,59,26,30.09,29.98,4,1,11,0.00
2013-4-9,80.0,63.4,48.0,51.0,42.2,35.0,87,51,21,30.03,29.93,7,2,20,0.00
2013-4-10,66.0,57.2,48.0,53.0,47.7,39.0,90,72,50,29.98,29.85,9,1,16,0.33
2013-4-11,61.0,51.6,44.0,52.0,45.2,37.0,91,80,58,30.09,29.82,4,2,13,0.21
2013-4-12,44.0,39.0,37.0,37.0,33.6,27.0,90,82,58,30.09,29.75,7,3,21,0.47
2013-4-13,55.0,44.2,35.0,41.0,34.6,32.0,90,72,49,29.96,29.76,5,1,11,0.12
2013-4-14,57.0,47.0,38.0,35.0,29.2,24.0,67,51,33,30.23,29.95,8,2,18,0.01
2013-4-15,59.0,45.4,35.0,33.0,28.7,24.0,73,53,33,30.39,30.23,9,1,14,0.00
2013-4-16,65.0,51.0,39.0,50.0,42.6,31.0,86,73,54,30.39,30.13,7,2,13,0.02
2013-4-17,69.0,56.9,47.0,50.0,37.9,29.0,87,54,26,30.32,30.14,6,2,13,0.03
2013-4-18,59.0,50.7,41.0,46.0,36.6,27.0,84,61,37,30.38,30.14,6,2,16,0.02
2013-4-19,71.0,60.8,50.0,61.0,55.5,45.0,92,83,67,30.14,29.68,8,4,23,0.08
2013-4-20,61.0,50.6,41.0,58.0,35.8,23.0,90,61,32,30.29,29.67,7,2,20,0.36
2013-4-21,56.0,42.5,31.0,27.0,21.7,19.0,68,45,26,30.62,30.29,7,2,17,0.01
2013-4-22,58.0,44.3,34.0,34.0,28.6,22.0,80,57,28,30.69,30.53,7,2,14,0.00
2013-4-23,47.0,40.7,35.0,38.0,33.6,27.0,86,76,69,30.53,30.13,5,2,14,0.00
2013-4-24,73.0,53.8,39.0,47.0,42.2,35.0,88,68,38,30.13,29.85,5,2,12,0.00
2013-4-25,66.0,54.5,44.0,49.0,32.1,21.0,87,47,22,30.28,29.87,7,2,16,0.00
2013-4-26,69.0,53.0,38.0,38.0,29.7,25.0,65,43,25,30.43,30.28,4,1,11,0.00
2013-4-27,71.0,55.1,40.0,34.0,27.8,23.0,57,38,17,30.45,30.29,4,1,12,0.00
2013-4-28,73.0,54.8,40.0,42.0,33.8,-99.9,84,50,30,30.34,30.22,6,1,13,0.00
2013-4-29,56.0,52.3,48.0,45.0,39.9,33.0,79,63,48,30.27,30.22,4,1,11,0.00
2013-4-30,70.0,62.8,50.0,36.0,26.4,19.0,39,26,15,30.36,30.30,5,2,13,0.00
2013-5-1,72.0,61.1,48.0,41.0,38.5,35.0,69,44,29,30.50,30.43,4,2,11,0.00
2013-5-2,83.0,60.6,41.0,47.0,39.6,34.0,87,53,19,30.50,30.32,4,1,9,0.00
2013-5-3,71.0,57.5,47.0,42.0,36.2,32.0,77,47,24,30.48,30.36,6,1,13,0.00
2013-5-4,75.0,56.3,43.0,45.0,40.8,37.0,88,61,25,30.40,30.24,7,1,16,0.00
2013-5-5,72.0,51.8,39.0,42.0,38.1,33.0,89,64,25,30.32,30.22,4,1,10,0.00
2013-5-6,75.0,55.8,41.0,51.0,44.4,37.0,89,69,38,30.29,30.16,3,1,9,0.00
2013-5-7,78.0,61.3,46.0,54.0,49.2,43.0,90,68,37,30.20,30.12,5,1,12,0.00
2013-5-8,63.0,59.0,55.0,60.0,55.5,52.0,92,89,82,30.17,30.02,6,1,18,0.88
2013-5-9,62.0,56.6,52.0,58.0,53.3,49.0,92,89,81,30.05,29.91,2,0,10,0.92
2013-5-10,82.0,63.8,50.0,60.0,51.1,-99.9,93,70,36,30.02,29.92,3,0,7,0.01
2013-5-11,64.0,61.0,58.0,61.0,57.4,53.0,92,88,77,29.92,29.73,3,0,9,0.29
2013-5-12,70.0,58.6,47.0,58.0,43.6,-99.9,92,64,27,29.91,29.66,5,1,15,0.02
2013-5-13,57.0,47.4,38.0,34.0,30.5,27.0,75,53,34,30.10,29.91,4,1,15,0.01
2013-5-14,62.0,47.8,36.0,33.0,29.7,22.0,78,53,27,30.12,30.03,3,0,13,0.00
2013-5-15,64.0,50.7,37.0,53.0,42.8,31.0,90,75,50,30.09,29.71,3,0,15,0.04
2013-5-16,85.0,59.7,50.0,52.0,25.5,-99.9,91,54,22,29.86,29.73,2,0,14,0.04
2013-5-17,73.0,59.3,51.0,45.0,33.4,-99.9,65,47,29,30.23,29.86,4,1,16,0.00
2013-5-18,72.0,56.8,44.0,49.0,44.1,38.0,82,64,39,30.33,30.23,3,0,9,0.00
2013-5-19,56.0,54.6,53.0,53.0,51.0,47.0,92,88,79,30.36,30.21,2,0,12,0.24
2013-5-20,82.0,65.7,55.0,68.0,59.6,53.0,93,82,56,30.21,29.99,1,0,5,0.07
2013-5-21,90.0,74.2,62.0,71.0,64.9,59.0,92,75,47,30.01,29.86,2,0,7,0.01
2013-5-22,83.0,67.1,56.0,69.0,61.4,53.0,90,83,62,29.96,29.87,3,0,14,0.04
2013-5-23,74.0,66.4,64.0,68.0,63.3,61.0,93,90,80,29.92,29.79,1,0,8,1.83
2013-5-24,64.0,54.7,43.0,62.0,52.1,40.0,93,91,84,29.93,29.69,5,2,19,0.94
2013-5-25,48.0,43.5,41.0,45.0,40.1,38.0,91,88,80,29.95,29.85,8,3,26,0.74
2013-5-26,63.0,51.2,43.0,44.0,39.2,36.0,85,65,42,30.19,29.89,8,2,28,0.03
2013-5-27,77.0,59.3,44.0,45.0,38.8,35.0,77,50,26,30.24,30.13,1,0,8,0.00
2013-5-28,71.0,56.1,45.0,54.0,46.9,39.0,91,74,40,30.24,30.16,1,0,5,0.20
2013-5-29,80.0,66.4,56.0,68.0,60.8,53.0,93,83,65,30.17,30.03,2,0,7,0.06
2013-5-30,93.0,77.7,63.0,71.0,64.9,60.0,91,68,43,30.15,30.08,1,0,5,0.01
2013-5-31,96.0,78.8,65.0,70.0,64.2,60.0,88,64,34,30.16,30.02,2,0,6,0.00
2013-6-1,93.0,78.3,67.0,71.0,65.1,60.0,84,66,43,30.05,29.94,2,0,11,0.00
2013-6-2,90.0,77.3,68.0,71.0,65.5,-99.9,87,71,50,29.95,29.78,4,0,12,0.00
2013-6-3,82.0,69.7,60.0,68.0,61.8,46.0,91,77,52,29.92,29.83,3,0,11,0.68
2013-6-4,77.0,62.4,50.0,51.0,44.1,40.0,69,53,31,30.14,29.92,3,1,11,0.01
2013-6-5,77.0,62.4,50.0,52.0,45.0,39.0,74,54,33,30.24,30.14,2,0,7,0.00
2013-6-6,73.0,59.2,50.0,56.0,50.9,45.0,90,75,54,30.19,30.07,3,0,11,0.19
2013-6-7,59.0,56.7,54.0,57.0,53.9,51.0,92,91,90,30.07,29.72,5,2,15,2.55
2013-6-8,78.0,63.7,53.0,64.0,56.9,51.0,92,80,60,30.08,29.64,4,1,11,1.81
2013-6-9,82.0,67.3,55.0,60.0,56.1,52.0,91,70,46,30.21,30.08,2,0,8,0.06
2013-6-10,71.0,62.1,58.0,63.0,57.5,54.0,91,85,73,30.21,29.93,4,1,16,1.47
2013-6-11,81.0,65.7,58.0,68.0,60.6,53.0,93,84,61,29.93,29.62,2,0,10,1.44
2013-6-12,74.0,64.5,56.0,57.0,52.7,50.0,81,67,48,29.88,29.68,4,1,17,0.08
2013-6-13,57.0,55.2,52.0,54.0,52.0,49.0,91,89,81,29.87,29.59,5,1,15,1.96
2013-6-14,74.0,58.3,50.0,59.0,52.4,47.0,92,82,53,29.89,29.59,4,1,17,1.91
2013-6-15,82.0,67.2,55.0,57.0,52.6,47.0,87,63,35,30.03,29.89,2,0,7,0.01
2013-6-16,79.0,66.8,53.0,62.0,55.1,46.0,82,67,43,30.01,29.78,1,0,9,0.00
2013-6-17,87.0,72.0,60.0,66.0,60.5,54.0,90,69,43,29.96,29.86,5,0,12,0.00
2013-6-18,84.0,67.5,59.0,68.0,60.6,55.0,90,80,52,29.96,29.85,2,0,11,0.17
2013-6-19,78.0,64.8,55.0,56.0,50.7,45.0,89,64,32,30.19,29.93,3,0,11,0.05
2013-6-20,82.0,63.7,50.0,59.0,51.2,46.0,89,67,37,30.29,30.19,2,0,8,0.00
2013-6-22,86.0,77.2,65.0,63.0,60.2,55.0,71,57,42,30.28,30.16,2,0,8,0.00
2013-6-23,92.0,74.5,62.0,70.0,63.1,55.0,86,69,40,30.21,30.09,2,0,9,0.00
2013-6-24,94.0,75.3,67.0,72.0,67.6,64.0,90,79,46,30.11,29.97,2,0,9,0.44
2013-6-25,90.0,77.0,65.0,74.0,67.8,62.0,92,75,51,30.03,29.83,1,0,6,0.44
2013-6-26,79.0,74.1,69.0,69.0,67.1,65.0,89,79,70,29.88,29.80,0,0,4,0.01
2013-6-27,84.0,70.3,66.0,72.0,66.4,63.0,92,88,62,29.87,29.64,2,0,14,0.69
2013-6-28,85.0,74.6,69.0,73.0,68.8,66.0,92,82,61,29.61,29.51,3,0,11,0.87
2013-6-29,86.0,74.4,65.0,69.0,66.0,62.0,91,77,49,29.75,29.53,2,0,8,0.09
2013-6-30,84.0,73.7,68.0,74.0,68.7,65.0,92,85,70,29.96,29.75,2,0,15,0.00
2013-7-1,74.0,71.7,70.0,71.0,68.6,67.0,92,90,88,30.09,29.95,1,0,7,0.35
2013-7-2,82.0,73.8,70.0,74.0,70.3,68.0,93,88,73,30.21,30.09,2,0,8,0.02
2013-7-3,85.0,76.4,70.0,74.0,70.1,67.0,90,81,64,30.28,30.20,2,0,7,0.02
2013-7-4,91.0,81.0,73.0,76.0,72.1,69.0,91,76,56,30.28,30.18,2,0,9,0.01
2013-7-5,94.0,79.9,73.0,76.0,70.8,68.0,88,75,51,30.24,30.12,1,0,6,0.00
2013-7-6,94.0,81.6,74.0,75.0,70.9,69.0,88,71,48,30.16,30.06,1,0,8,0.00
2013-7-7,96.0,82.9,73.0,77.0,72.7,69.0,89,73,48,30.10,29.96,1,0,6,0.00
2013-7-8,91.0,76.4,70.0,71.0,65.2,-99.9,85,72,47,30.07,29.98,1,0,5,0.00
2013-7-9,91.0,74.5,67.0,71.0,67.0,63.0,90,79,46,30.11,30.04,3,0,9,0.00
2013-7-10,86.0,74.1,70.0,75.0,67.5,-99.9,91,84,67,30.07,29.84,2,0,8,0.44
2013-7-11,84.0,74.7,67.0,72.0,68.4,60.0,93,81,57,29.97,29.83,1,0,10,0.06
2013-7-12,80.0,71.0,65.0,66.0,61.5,57.0,81,72,59,30.18,29.96,3,1,14,0.05
2013-7-13,75.0,69.6,63.0,70.0,65.1,58.0,88,86,84,30.33,30.18,1,0,10,0.07
2013-7-17,97.0,88.5,78.0,74.0,71.0,68.0,76,58,43,30.22,30.10,0,0,3,0.00
2013-7-18,98.0,81.3,72.0,76.0,71.8,68.0,92,75,46,30.11,30.00,2,0,14,0.41
2013-7-19,98.0,84.5,75.0,77.0,73.1,70.0,89,70,46,30.01,29.83,1,0,6,0.39
2013-7-20,94.0,82.0,73.0,77.0,70.2,-99.9,85,70,51,29.88,29.76,2,0,12,0.10
2013-7-21,90.0,76.6,69.0,68.0,63.0,58.0,85,64,36,30.01,29.88,1,0,6,0.10
2013-7-22,84.0,72.2,66.0,72.0,66.6,62.0,91,83,65,30.01,29.87,2,0,8,0.03
2013-7-23,89.0,74.6,71.0,76.0,70.5,68.0,92,87,59,29.86,29.60,1,0,7,1.66
2013-7-24,82.0,73.8,61.0,71.0,65.5,51.0,93,76,53,29.98,29.65,3,0,12,0.03
2013-7-25,66.0,61.9,58.0,57.0,53.2,49.0,85,73,66,30.11,29.98,3,1,10,0.01
2013-7-26,81.0,67.6,61.0,64.0,59.6,56.0,87,77,53,30.08,30.03,2,0,9,0.03
2013-7-27,85.0,72.8,60.0,66.0,61.6,57.0,92,70,46,30.09,30.01,2,0,9,0.01
2013-7-28,79.0,69.6,63.0,68.0,63.8,59.0,92,82,63,30.05,29.98,2,0,8,0.09
2013-7-29,88.0,72.9,66.0,69.0,64.1,55.0,93,76,43,30.12,30.00,2,0,6,0.01
2013-7-30,82.0,69.2,59.0,61.0,56.5,52.0,83,65,46,30.19,30.12,2,0,7,0.01
2013-7-31,86.0,70.6,58.0,62.0,58.3,54.0,89,67,41,30.19,30.08,2,0,7,0.00
2013-8-1,76.0,65.3,63.0,65.0,61.4,59.0,92,88,66,30.09,29.87,1,0,6,0.42
2013-8-2,84.0,70.8,63.0,68.0,63.1,60.0,92,78,48,29.93,29.82,1,0,9,0.16
2013-8-3,81.0,69.1,64.0,68.0,62.1,56.0,89,79,61,29.93,29.86,1,0,7,0.05
2013-8-4,82.0,66.6,56.0,62.0,57.1,50.0,90,73,43,30.00,29.87,5,0,14,0.03
2013-8-5,80.0,63.8,54.0,53.0,50.0,46.0,86,64,32,30.08,29.98,3,0,12,0.03
2013-8-6,83.0,65.0,52.0,60.0,53.9,49.0,89,70,42,30.17,30.08,2,0,9,0.00
2013-8-7,78.0,67.0,57.0,64.0,59.3,54.0,90,77,58,30.20,30.11,2,0,9,0.00
2013-8-8,83.0,72.0,68.0,72.0,66.9,63.0,91,84,69,30.11,30.05,2,0,8,0.01
2013-8-9,82.0,72.9,70.0,75.0,69.7,67.0,93,90,74,30.06,29.83,2,0,12,1.32
2013-8-10,84.0,72.5,62.0,68.0,62.0,54.0,92,71,47,30.09,29.88,2,0,9,0.32
2013-8-11,84.0,68.1,55.0,61.0,55.3,48.0,85,66,40,30.15,30.06,1,0,7,0.00
2013-8-12,87.0,69.3,62.0,63.0,59.3,53.0,90,73,34,30.08,28.97,1,0,5,0.00
2013-8-13,74.0,67.4,65.0,67.0,61.9,-99.9,92,86,74,28.98,28.74,1,0,8,0.19
2013-8-14,75.0,61.9,56.0,61.0,48.1,-99.9,88,68,43,29.05,28.79,4,1,13,0.02
2013-8-15,78.0,56.1,51.0,56.0,33.5,-99.9,87,63,40,29.18,29.07,2,0,7,0.00
2013-8-16,82.0,63.5,53.0,59.0,49.1,-99.9,91,67,40,30.24,29.16,0,0,3,0.00
2013-8-17,86.0,68.2,55.0,62.0,56.6,51.0,90,69,37,30.32,30.24,1,0,6,0.00
2013-8-18,78.0,66.0,59.0,63.0,56.3,-99.9,90,75,53,30.31,30.16,1,0,4,0.00
2013-8-19,82.0,64.1,60.0,65.0,44.6,-99.9,88,74,54,30.16,30.06,1,0,5,0.00
2013-8-20,88.0,70.1,61.0,66.0,58.4,-99.9,90,72,38,30.17,30.08,1,0,6,0.00
2013-8-21,91.0,72.5,60.0,67.0,61.8,57.0,92,72,39,30.22,30.09,1,0,7,0.00
2013-8-22,79.0,71.2,66.0,70.0,66.2,60.0,91,84,73,30.11,29.91,0,0,6,0.11
2013-8-23,83.0,70.8,63.0,67.0,58.5,49.0,91,67,40,30.15,29.91,4,1,12,0.01
2013-8-24,82.0,66.5,56.0,56.0,51.2,46.0,79,60,33,30.38,30.15,4,0,8,0.00
2013-8-25,87.0,63.5,53.0,59.0,50.6,-99.9,91,69,33,30.42,30.25,1,0,5,0.00
2013-8-26,77.0,68.8,64.0,67.0,60.6,54.0,90,75,61,30.25,29.96,0,0,4,0.09
2013-8-27,85.0,72.3,67.0,70.0,67.0,65.0,93,84,59,29.95,29.85,3,0,10,0.79
2013-8-28,89.0,77.0,68.0,71.0,67.2,65.0,89,73,48,29.95,29.89,1,0,6,0.00
2013-8-29,79.0,70.3,66.0,66.0,64.0,61.0,91,82,61,30.07,29.95,2,0,9,0.00
2013-8-30,87.0,72.3,65.0,70.0,64.9,60.0,90,78,52,30.07,29.89,0,0,5,0.00
2013-8-31,83.0,74.9,70.0,72.0,69.3,66.0,89,83,70,29.90,29.83,1,0,7,0.00
2013-9-1,82.0,74.2,71.0,75.0,68.1,-99.9,91,84,72,29.90,29.85,1,0,7,0.19
2013-9-2,81.0,72.3,69.0,73.0,68.8,66.0,92,89,74,29.87,29.74,2,0,6,0.25
2013-9-3,77.0,68.3,60.0,68.0,62.7,55.0,93,83,63,29.92,29.76,2,0,7,0.05
2013-9-4,83.0,66.2,56.0,61.0,56.5,53.0,90,73,42,30.01,29.91,0,0,0,0.00
2013-9-5,76.0,64.9,56.0,60.0,51.4,41.0,85,64,37,30.18,29.93,0,0,0,0.00
2013-9-6,74.0,56.2,46.0,47.0,43.0,40.0,80,63,35,30.29,30.16,0,0,0,0.00
2013-9-7,82.0,61.7,48.0,56.0,49.7,41.0,86,68,37,30.15,29.92,0,0,0,0.00
2013-9-8,81.0,64.6,56.0,62.0,49.0,-99.9,79,61,34,30.11,29.84,0,0,0,0.00
2013-9-9,75.0,59.2,46.0,53.0,47.3,42.0,86,67,40,30.27,30.11,0,0,0,0.00
2013-9-10,81.0,68.9,60.0,71.0,64.4,54.0,91,86,72,30.20,30.09,0,0,0,0.07
2013-9-11,98.0,80.6,70.0,78.0,71.5,65.0,92,75,49,30.15,30.02,1,0,7,0.01
2013-9-12,88.0,73.6,67.0,74.0,67.9,64.0,91,83,63,30.03,29.73,0,0,7,0.55
2013-9-13,77.0,65.0,54.0,65.0,59.4,47.0,93,82,60,29.86,29.67,3,0,10,0.06
2013-9-14,67.0,56.1,48.0,52.0,47.2,43.0,84,73,57,30.14,29.85,3,1,12,0.01
2013-9-15,73.0,52.7,43.0,50.0,42.9,-99.9,90,74,40,30.22,30.11,0,0,2,0.00
2013-9-16,69.0,58.5,50.0,55.0,50.9,44.0,88,76,54,30.28,30.06,2,0,10,0.01
2013-9-17,69.0,52.3,41.0,44.0,39.0,35.0,82,63,33,30.45,30.29,2,0,9,0.01
2013-9-18,51.0,42.8,41.0,45.0,39.5,38.0,91,88,82,30.38,30.22,0,0,0,0.00
2013-9-19,82.0,58.0,47.0,53.0,48.1,44.0,91,74,33,30.22,30.10,0,0,3,0.00
2013-9-20,84.0,61.0,49.0,58.0,52.3,46.0,92,76,39,30.13,30.03,2,0,9,0.00
2013-9-21,71.0,63.5,56.0,65.0,59.3,53.0,91,87,73,30.05,29.70,3,1,14,0.12
2013-9-22,71.0,59.3,50.0,63.0,50.1,-99.9,92,75,52,29.93,29.67,2,0,12,1.06
2013-9-23,67.0,51.3,42.0,44.0,40.3,37.0,84,67,43,30.07,29.92,5,1,14,0.01
2013-9-24,74.0,50.8,41.0,46.0,41.6,36.0,86,72,36,30.07,29.90,2,0,9,0.00
2013-9-25,69.0,53.5,45.0,52.0,45.1,40.0,85,74,47,29.98,29.91,1,0,8,0.00
2013-9-26,72.0,59.3,52.0,54.0,50.5,46.0,85,74,48,30.14,29.98,2,0,8,0.00
2013-9-27,66.0,55.4,48.0,53.0,48.8,44.0,93,79,61,30.30,30.14,2,0,7,0.00
2013-9-28,77.0,58.1,47.0,55.0,49.1,44.0,91,74,41,30.36,30.28,2,0,6,0.00
2013-10-1,62.0,58.8,53.0,55.0,53.0,48.0,84,82,77,30.02,29.97,0,0,0,0.00
2013-10-2,84.0,64.2,54.0,63.0,55.9,51.0,91,76,47,30.03,29.94,2,0,10,0.00
2013-10-3,81.0,63.7,50.0,56.0,51.6,45.0,85,67,34,30.16,30.04,1,0,3,0.00
2013-10-4,85.0,67.9,57.0,67.0,59.3,53.0,90,76,51,30.10,30.01,1,0,6,0.00
2013-10-5,80.0,66.3,60.0,64.0,59.5,55.0,89,80,56,30.14,30.07,1,0,5,0.09
2013-10-6,64.0,60.6,59.0,61.0,58.4,57.0,93,92,90,30.17,30.10,4,0,14,0.47
2013-10-7,71.0,63.8,55.0,67.0,61.3,51.0,93,92,85,30.10,29.80,4,1,20,0.34
2013-10-8,69.0,55.1,47.0,51.0,44.0,41.0,89,69,40,30.37,29.98,5,1,15,0.09
2013-10-9,65.0,53.1,45.0,45.0,42.4,39.0,82,68,48,30.46,30.35,3,1,14,0.00
2013-10-10,60.0,53.2,48.0,52.0,47.0,42.0,84,80,74,30.35,30.16,3,1,9,0.00
2013-10-11,67.0,59.7,53.0,57.0,51.9,44.0,85,76,58,30.16,30.09,3,1,12,0.00
2013-10-12,74.0,60.0,51.0,55.0,48.3,43.0,82,67,46,30.34,30.14,4,1,17,0.00
2013-10-13,69.0,54.7,48.0,50.0,44.8,-99.9,87,73,49,30.42,30.33,3,0,14,0.00
2013-10-14,70.0,52.4,42.0,50.0,44.8,39.0,91,78,45,30.41,30.27,1,0,5,0.00
2013-10-15,76.0,57.7,46.0,55.0,46.9,39.0,91,70,43,30.29,30.16,2,0,10,0.00
2013-10-16,62.0,54.8,48.0,53.0,48.0,42.0,89,78,65,30.16,29.96,2,0,5,0.00
2013-10-17,79.0,63.3,56.0,61.0,56.3,53.0,90,79,45,29.95,29.72,2,0,7,0.02
2013-10-18,71.0,59.1,48.0,59.0,46.6,38.0,91,66,37,29.98,29.66,4,1,15,0.05
2013-10-19,66.0,51.9,41.0,50.0,42.2,37.0,89,71,39,30.01,29.77,4,0,12,0.09
2013-10-20,65.0,51.6,44.0,51.0,38.5,-99.9,89,65,37,30.07,29.75,4,1,11,0.09
2013-10-21,69.0,50.5,40.0,43.0,38.1,35.0,85,66,29,30.16,30.00,3,0,8,0.00
2013-10-22,65.0,52.3,44.0,50.0,44.4,37.0,89,75,52,30.01,29.75,2,0,7,0.00
2013-10-23,54.0,44.2,36.0,40.0,34.6,31.0,90,70,45,29.83,29.64,2,0,7,0.00
2013-10-24,56.0,43.4,36.0,35.0,30.5,26.0,81,62,34,29.97,29.74,4,1,11,0.00
2013-10-25,53.0,44.0,36.0,33.0,29.8,27.0,80,58,41,30.21,29.97,7,1,13,0.00
2013-10-26,54.0,43.6,32.0,35.0,30.1,27.0,87,62,36,30.20,29.90,7,1,20,0.00
2013-10-27,60.0,47.0,40.0,36.0,30.2,-99.9,69,55,33,30.11,29.84,4,1,13,0.00
2013-10-28,64.0,44.2,34.0,36.0,29.7,-99.9,83,62,31,30.34,30.11,4,0,10,0.00
2013-10-29,56.0,42.4,35.0,31.0,27.5,25.0,76,56,35,30.45,30.34,1,0,8,0.00
2013-10-30,54.0,43.5,35.0,45.0,36.7,29.0,89,77,64,30.37,30.21,1,0,4,0.00
2013-10-31,61.0,49.8,39.0,56.0,46.7,36.0,95,89,84,30.25,29.84,5,1,10,0.14
2013-11-1,69.0,61.0,54.0,60.0,54.1,49.0,91,79,59,29.83,29.55,7,3,17,0.20
2013-11-2,70.0,53.5,44.0,49.0,43.4,40.0,90,71,40,29.80,29.64,3,0,10,0.01
2013-11-3,47.0,39.9,30.0,40.0,28.5,-99.9,84,66,51,30.44,29.80,6,2,18,0.00
2013-11-4,49.0,35.5,27.0,23.0,16.5,13.0,68,48,25,30.68,30.45,4,1,10,0.00
2013-11-12,47.0,32.8,24.0,35.0,23.5,16.0,84,69,54,30.25,29.94,6,2,13,0.03
2013-11-13,40.0,28.1,21.0,18.0,15.2,12.0,73,59,36,30.34,30.24,6,1,13,0.02
2013-11-14,53.0,39.5,28.0,21.0,17.8,15.0,69,44,23,30.22,30.12,4,2,12,0.00
2013-11-15,61.0,45.6,35.0,25.0,20.2,14.0,54,38,20,30.24,30.15,2,0,7,0.00
2013-11-16,64.0,45.7,41.0,40.0,32.1,-99.9,88,64,32,30.34,30.27,1,0,7,0.00
2013-11-17,58.0,51.4,42.0,56.0,48.9,39.0,92,91,88,30.29,29.83,4,1,9,0.02
2013-11-18,66.0,56.3,46.0,58.0,41.3,26.0,92,60,35,29.82,29.59,7,3,17,0.22
2013-11-21,43.0,42.4,42.0,34.0,33.2,32.0,74,70,64,30.48,30.41,0,0,1,0.00
2013-11-22,52.0,46.9,42.0,47.0,42.4,35.0,90,84,76,30.39,29.89,4,0,8,0.11
2013-11-23,49.0,38.3,26.0,44.0,23.7,-99.9,82,59,36,30.02,29.88,7,3,19,0.01
2013-11-24,30.0,22.8,19.0,12.0,5.0,-2.0,62,47,26,30.29,29.93,9,4,23,0.00
2013-11-25,37.0,25.6,14.0,15.0,10.9,6.0,77,55,37,30.43,30.29,3,1,12,0.00
2013-11-26,37.0,32.5,29.0,33.0,21.8,13.0,90,66,51,30.32,29.88,3,1,8,0.42
2013-11-27,58.0,44.1,33.0,56.0,41.8,30.0,95,91,90,29.88,29.34,6,2,18,3.13